sensor_id;sensor_type;location;lat;lon;timestamp;P1;durP1;ratioP1;P2;durP2;ratioP2
48516;SDS011;34310;51.904;4.256;2023-08-01T00:01:10;2.78;;;1.90;;
48516;SDS011;34310;51.904;4.256;2023-08-01T00:03:37;3.00;;;1.88;;
48516;SDS011;34310;51.904;4.256;2023-08-01T00:06:03;3.40;;;2.13;;
48516;SDS011;34310;51.904;4.256;2023-08-01T00:08:30;2.95;;;2.00;;
48516;SDS011;34310;51.904;4.256;2023-08-01T00:10:56;2.97;;;1.98;;
48516;SDS011;34310;51.904;4.256;2023-08-01T00:13:23;2.95;;;1.88;;
48516;SDS011;34310;51.904;4.256;2023-08-01T00:15:49;2.35;;;1.88;;
48516;SDS011;34310;51.904;4.256;2023-08-01T00:18:33;2.35;;;1.70;;
48516;SDS011;34310;51.904;4.256;2023-08-01T00:20:59;2.22;;;1.80;;
48516;SDS011;34310;51.904;4.256;2023-08-01T00:23:26;2.22;;;1.90;;
48516;SDS011;34310;51.904;4.256;2023-08-01T00:25:52;2.40;;;1.70;;
48516;SDS011;34310;51.904;4.256;2023-08-01T00:28:19;2.88;;;1.73;;
48516;SDS011;34310;51.904;4.256;2023-08-01T00:30:45;2.33;;;1.75;;
48516;SDS011;34310;51.904;4.256;2023-08-01T00:33:12;2.35;;;1.70;;
48516;SDS011;34310;51.904;4.256;2023-08-01T00:35:38;2.85;;;1.80;;
48516;SDS011;34310;51.904;4.256;2023-08-01T00:38:05;2.70;;;1.88;;
48516;SDS011;34310;51.904;4.256;2023-08-01T00:40:31;1.92;;;1.73;;
48516;SDS011;34310;51.904;4.256;2023-08-01T00:42:59;3.13;;;2.13;;
48516;SDS011;34310;51.904;4.256;2023-08-01T00:45:26;2.70;;;1.85;;
48516;SDS011;34310;51.904;4.256;2023-08-01T00:47:54;3.97;;;1.98;;
48516;SDS011;34310;51.904;4.256;2023-08-01T00:50:21;2.90;;;1.80;;
48516;SDS011;34310;51.904;4.256;2023-08-01T00:52:48;3.25;;;1.98;;
48516;SDS011;34310;51.904;4.256;2023-08-01T00:55:18;3.47;;;1.90;;
48516;SDS011;34310;51.904;4.256;2023-08-01T00:57:44;2.55;;;1.90;;
48516;SDS011;34310;51.904;4.256;2023-08-01T01:00:12;1.88;;;1.67;;
48516;SDS011;34310;51.904;4.256;2023-08-01T01:02:39;2.42;;;1.60;;
48516;SDS011;34310;51.904;4.256;2023-08-01T01:05:06;3.63;;;1.75;;
48516;SDS011;34310;51.904;4.256;2023-08-01T01:07:33;2.78;;;1.85;;
48516;SDS011;34310;51.904;4.256;2023-08-01T01:10:00;2.22;;;1.98;;
48516;SDS011;34310;51.904;4.256;2023-08-01T01:12:27;4.00;;;1.80;;
48516;SDS011;34310;51.904;4.256;2023-08-01T01:14:53;2.60;;;1.42;;
48516;SDS011;34310;51.904;4.256;2023-08-01T01:17:20;1.70;;;1.60;;
48516;SDS011;34310;51.904;4.256;2023-08-01T01:19:46;3.03;;;1.90;;
48516;SDS011;34310;51.904;4.256;2023-08-01T01:22:13;1.90;;;1.70;;
48516;SDS011;34310;51.904;4.256;2023-08-01T01:24:41;3.25;;;2.20;;
48516;SDS011;34310;51.904;4.256;2023-08-01T01:27:08;3.47;;;1.90;;
48516;SDS011;34310;51.904;4.256;2023-08-01T01:29:36;2.42;;;1.70;;
48516;SDS011;34310;51.904;4.256;2023-08-01T01:32:03;1.83;;;1.60;;
48516;SDS011;34310;51.904;4.256;2023-08-01T01:34:31;2.40;;;1.60;;
48516;SDS011;34310;51.904;4.256;2023-08-01T01:36:58;1.65;;;1.55;;
48516;SDS011;34310;51.904;4.256;2023-08-01T01:39:24;2.42;;;1.90;;
48516;SDS011;34310;51.904;4.256;2023-08-01T01:41:51;2.72;;;1.90;;
48516;SDS011;34310;51.904;4.256;2023-08-01T01:44:17;2.22;;;1.67;;
48516;SDS011;34310;51.904;4.256;2023-08-01T01:46:44;2.83;;;1.90;;
48516;SDS011;34310;51.904;4.256;2023-08-01T01:49:10;2.80;;;1.77;;
48516;SDS011;34310;51.904;4.256;2023-08-01T01:51:37;2.47;;;1.80;;
48516;SDS011;34310;51.904;4.256;2023-08-01T01:54:03;2.58;;;1.95;;
48516;SDS011;34310;51.904;4.256;2023-08-01T01:56:30;2.25;;;1.80;;
48516;SDS011;34310;51.904;4.256;2023-08-01T01:58:56;2.13;;;1.80;;
48516;SDS011;34310;51.904;4.256;2023-08-01T02:01:22;1.90;;;1.70;;
48516;SDS011;34310;51.904;4.256;2023-08-01T02:03:49;2.33;;;1.98;;
48516;SDS011;34310;51.904;4.256;2023-08-01T02:06:15;2.85;;;1.85;;
48516;SDS011;34310;51.904;4.256;2023-08-01T02:08:42;2.20;;;1.60;;
48516;SDS011;34310;51.904;4.256;2023-08-01T02:11:08;3.03;;;1.77;;
48516;SDS011;34310;51.904;4.256;2023-08-01T02:13:35;2.25;;;1.75;;
48516;SDS011;34310;51.904;4.256;2023-08-01T02:16:01;2.00;;;1.70;;
48516;SDS011;34310;51.904;4.256;2023-08-01T02:18:28;2.50;;;1.70;;
48516;SDS011;34310;51.904;4.256;2023-08-01T02:20:54;2.83;;;1.90;;
48516;SDS011;34310;51.904;4.256;2023-08-01T02:23:21;2.72;;;1.63;;
48516;SDS011;34310;51.904;4.256;2023-08-01T02:25:47;2.47;;;1.85;;
48516;SDS011;34310;51.904;4.256;2023-08-01T02:28:14;2.97;;;1.90;;
48516;SDS011;34310;51.904;4.256;2023-08-01T02:30:40;4.57;;;1.90;;
48516;SDS011;34310;51.904;4.256;2023-08-01T02:33:07;4.50;;;2.00;;
48516;SDS011;34310;51.904;4.256;2023-08-01T02:35:33;2.97;;;2.00;;
48516;SDS011;34310;51.904;4.256;2023-08-01T02:38:00;3.15;;;1.75;;
48516;SDS011;34310;51.904;4.256;2023-08-01T02:40:26;2.60;;;2.03;;
48516;SDS011;34310;51.904;4.256;2023-08-01T02:42:53;3.17;;;2.10;;
48516;SDS011;34310;51.904;4.256;2023-08-01T02:45:19;2.20;;;1.85;;
48516;SDS011;34310;51.904;4.256;2023-08-01T02:47:46;3.40;;;1.98;;
48516;SDS011;34310;51.904;4.256;2023-08-01T02:50:13;3.58;;;1.90;;
48516;SDS011;34310;51.904;4.256;2023-08-01T02:52:39;3.05;;;1.90;;
48516;SDS011;34310;51.904;4.256;2023-08-01T02:55:06;3.53;;;1.80;;
48516;SDS011;34310;51.904;4.256;2023-08-01T02:57:33;2.33;;;1.63;;
48516;SDS011;34310;51.904;4.256;2023-08-01T02:59:59;2.60;;;1.80;;
48516;SDS011;34310;51.904;4.256;2023-08-01T03:02:26;3.35;;;1.95;;
48516;SDS011;34310;51.904;4.256;2023-08-01T03:04:52;3.38;;;2.10;;
48516;SDS011;34310;51.904;4.256;2023-08-01T03:07:18;2.92;;;1.80;;
48516;SDS011;34310;51.904;4.256;2023-08-01T03:09:45;2.22;;;1.77;;
48516;SDS011;34310;51.904;4.256;2023-08-01T03:12:11;2.83;;;1.95;;
48516;SDS011;34310;51.904;4.256;2023-08-01T03:14:38;1.98;;;1.77;;
48516;SDS011;34310;51.904;4.256;2023-08-01T03:17:04;3.97;;;2.03;;
48516;SDS011;34310;51.904;4.256;2023-08-01T03:19:31;3.05;;;2.00;;
48516;SDS011;34310;51.904;4.256;2023-08-01T03:21:57;2.53;;;1.75;;
48516;SDS011;34310;51.904;4.256;2023-08-01T03:24:24;3.40;;;1.85;;
48516;SDS011;34310;51.904;4.256;2023-08-01T03:26:50;2.20;;;1.92;;
48516;SDS011;34310;51.904;4.256;2023-08-01T03:29:17;3.65;;;1.95;;
48516;SDS011;34310;51.904;4.256;2023-08-01T03:31:43;2.38;;;1.80;;
48516;SDS011;34310;51.904;4.256;2023-08-01T03:34:10;2.97;;;1.92;;
48516;SDS011;34310;51.904;4.256;2023-08-01T03:36:36;2.53;;;1.83;;
48516;SDS011;34310;51.904;4.256;2023-08-01T03:39:03;2.10;;;1.70;;
48516;SDS011;34310;51.904;4.256;2023-08-01T03:41:31;3.70;;;1.92;;
48516;SDS011;34310;51.904;4.256;2023-08-01T03:43:58;2.67;;;1.98;;
48516;SDS011;34310;51.904;4.256;2023-08-01T03:46:25;3.17;;;1.98;;
48516;SDS011;34310;51.904;4.256;2023-08-01T03:48:51;3.03;;;2.08;;
48516;SDS011;34310;51.904;4.256;2023-08-01T03:51:18;2.42;;;1.80;;
48516;SDS011;34310;51.904;4.256;2023-08-01T03:53:44;2.95;;;2.03;;
48516;SDS011;34310;51.904;4.256;2023-08-01T03:56:14;3.55;;;1.90;;
48516;SDS011;34310;51.904;4.256;2023-08-01T03:58:40;3.38;;;2.03;;
48516;SDS011;34310;51.904;4.256;2023-08-01T04:01:07;2.45;;;1.92;;
48516;SDS011;34310;51.904;4.256;2023-08-01T04:03:33;4.20;;;1.95;;
48516;SDS011;34310;51.904;4.256;2023-08-01T04:06:00;3.03;;;1.80;;
48516;SDS011;34310;51.904;4.256;2023-08-01T04:08:26;2.67;;;2.00;;
48516;SDS011;34310;51.904;4.256;2023-08-01T04:10:53;2.85;;;1.98;;
48516;SDS011;34310;51.904;4.256;2023-08-01T04:13:19;2.58;;;1.85;;
48516;SDS011;34310;51.904;4.256;2023-08-01T04:15:46;2.90;;;2.00;;
48516;SDS011;34310;51.904;4.256;2023-08-01T04:18:12;3.50;;;2.10;;
48516;SDS011;34310;51.904;4.256;2023-08-01T04:20:39;3.55;;;2.10;;
48516;SDS011;34310;51.904;4.256;2023-08-01T04:23:08;2.40;;;1.73;;
48516;SDS011;34310;51.904;4.256;2023-08-01T04:25:34;2.65;;;1.90;;
48516;SDS011;34310;51.904;4.256;2023-08-01T04:28:01;2.70;;;1.73;;
48516;SDS011;34310;51.904;4.256;2023-08-01T04:30:27;3.25;;;1.90;;
48516;SDS011;34310;51.904;4.256;2023-08-01T04:32:54;3.13;;;1.92;;
48516;SDS011;34310;51.904;4.256;2023-08-01T04:35:20;3.13;;;2.00;;
48516;SDS011;34310;51.904;4.256;2023-08-01T04:37:47;3.00;;;1.90;;
48516;SDS011;34310;51.904;4.256;2023-08-01T04:40:13;3.08;;;1.95;;
48516;SDS011;34310;51.904;4.256;2023-08-01T04:42:40;2.72;;;1.90;;
48516;SDS011;34310;51.904;4.256;2023-08-01T04:45:06;2.35;;;1.88;;
48516;SDS011;34310;51.904;4.256;2023-08-01T04:47:33;2.00;;;1.80;;
48516;SDS011;34310;51.904;4.256;2023-08-01T04:50:00;2.38;;;1.85;;
48516;SDS011;34310;51.904;4.256;2023-08-01T04:52:26;2.45;;;1.77;;
48516;SDS011;34310;51.904;4.256;2023-08-01T04:54:53;2.90;;;1.60;;
48516;SDS011;34310;51.904;4.256;2023-08-01T04:57:19;2.78;;;1.80;;
48516;SDS011;34310;51.904;4.256;2023-08-01T04:59:46;3.25;;;1.92;;
48516;SDS011;34310;51.904;4.256;2023-08-01T05:02:12;2.83;;;1.73;;
48516;SDS011;34310;51.904;4.256;2023-08-01T05:04:39;2.75;;;1.98;;
48516;SDS011;34310;51.904;4.256;2023-08-01T05:07:05;4.05;;;1.80;;
48516;SDS011;34310;51.904;4.256;2023-08-01T05:09:32;2.42;;;1.85;;
48516;SDS011;34310;51.904;4.256;2023-08-01T05:11:59;3.58;;;2.00;;
48516;SDS011;34310;51.904;4.256;2023-08-01T05:14:25;2.13;;;1.73;;
48516;SDS011;34310;51.904;4.256;2023-08-01T05:16:52;2.67;;;1.90;;
48516;SDS011;34310;51.904;4.256;2023-08-01T05:19:18;2.92;;;1.90;;
48516;SDS011;34310;51.904;4.256;2023-08-01T05:21:45;4.82;;;2.03;;
48516;SDS011;34310;51.904;4.256;2023-08-01T05:24:11;2.42;;;1.80;;
48516;SDS011;34310;51.904;4.256;2023-08-01T05:26:38;2.20;;;1.60;;
48516;SDS011;34310;51.904;4.256;2023-08-01T05:29:05;3.63;;;2.10;;
48516;SDS011;34310;51.904;4.256;2023-08-01T05:31:31;3.63;;;1.80;;
48516;SDS011;34310;51.904;4.256;2023-08-01T05:33:57;3.53;;;1.90;;
48516;SDS011;34310;51.904;4.256;2023-08-01T05:36:24;2.80;;;2.00;;
48516;SDS011;34310;51.904;4.256;2023-08-01T05:38:50;3.92;;;1.98;;
48516;SDS011;34310;51.904;4.256;2023-08-01T05:41:17;4.25;;;1.85;;
48516;SDS011;34310;51.904;4.256;2023-08-01T05:43:43;2.40;;;1.88;;
48516;SDS011;34310;51.904;4.256;2023-08-01T05:46:10;4.32;;;1.90;;
48516;SDS011;34310;51.904;4.256;2023-08-01T05:48:36;2.95;;;1.88;;
48516;SDS011;34310;51.904;4.256;2023-08-01T05:51:03;2.83;;;1.90;;
48516;SDS011;34310;51.904;4.256;2023-08-01T05:53:29;2.83;;;2.00;;
48516;SDS011;34310;51.904;4.256;2023-08-01T05:55:56;2.55;;;1.90;;
48516;SDS011;34310;51.904;4.256;2023-08-01T05:58:22;3.58;;;1.90;;
48516;SDS011;34310;51.904;4.256;2023-08-01T06:00:49;3.17;;;1.77;;
48516;SDS011;34310;51.904;4.256;2023-08-01T06:03:16;3.75;;;1.90;;
48516;SDS011;34310;51.904;4.256;2023-08-01T06:05:42;2.80;;;1.80;;
48516;SDS011;34310;51.904;4.256;2023-08-01T06:08:09;3.33;;;1.95;;
48516;SDS011;34310;51.904;4.256;2023-08-01T06:10:35;3.92;;;1.85;;
48516;SDS011;34310;51.904;4.256;2023-08-01T06:13:02;5.03;;;2.05;;
48516;SDS011;34310;51.904;4.256;2023-08-01T06:15:29;4.15;;;2.00;;
48516;SDS011;34310;51.904;4.256;2023-08-01T06:17:55;3.83;;;2.30;;
48516;SDS011;34310;51.904;4.256;2023-08-01T06:20:22;5.75;;;2.42;;
48516;SDS011;34310;51.904;4.256;2023-08-01T06:22:48;6.07;;;2.80;;
48516;SDS011;34310;51.904;4.256;2023-08-01T06:25:15;6.55;;;3.15;;
48516;SDS011;34310;51.904;4.256;2023-08-01T06:27:44;6.93;;;2.88;;
48516;SDS011;34310;51.904;4.256;2023-08-01T06:30:10;6.57;;;3.08;;
48516;SDS011;34310;51.904;4.256;2023-08-01T06:32:37;11.95;;;3.30;;
48516;SDS011;34310;51.904;4.256;2023-08-01T06:35:04;8.45;;;3.20;;
48516;SDS011;34310;51.904;4.256;2023-08-01T06:37:31;11.82;;;3.30;;
48516;SDS011;34310;51.904;4.256;2023-08-01T06:39:58;9.38;;;3.40;;
48516;SDS011;34310;51.904;4.256;2023-08-01T06:42:24;6.82;;;3.33;;
48516;SDS011;34310;51.904;4.256;2023-08-01T06:44:51;10.90;;;3.20;;
48516;SDS011;34310;51.904;4.256;2023-08-01T06:47:17;8.95;;;3.08;;
48516;SDS011;34310;51.904;4.256;2023-08-01T06:49:44;8.93;;;3.00;;
48516;SDS011;34310;51.904;4.256;2023-08-01T06:52:10;6.18;;;3.17;;
48516;SDS011;34310;51.904;4.256;2023-08-01T06:54:37;6.80;;;2.85;;
48516;SDS011;34310;51.904;4.256;2023-08-01T06:57:04;8.10;;;3.00;;
48516;SDS011;34310;51.904;4.256;2023-08-01T06:59:32;8.45;;;3.05;;
48516;SDS011;34310;51.904;4.256;2023-08-01T07:01:58;7.95;;;2.85;;
48516;SDS011;34310;51.904;4.256;2023-08-01T07:04:25;6.75;;;2.65;;
48516;SDS011;34310;51.904;4.256;2023-08-01T07:06:52;5.97;;;2.90;;
48516;SDS011;34310;51.904;4.256;2023-08-01T07:09:18;10.90;;;3.20;;
48516;SDS011;34310;51.904;4.256;2023-08-01T07:11:44;6.35;;;2.95;;
48516;SDS011;34310;51.904;4.256;2023-08-01T07:14:11;6.05;;;2.80;;
48516;SDS011;34310;51.904;4.256;2023-08-01T07:16:37;5.63;;;2.90;;
48516;SDS011;34310;51.904;4.256;2023-08-01T07:19:04;7.28;;;2.75;;
48516;SDS011;34310;51.904;4.256;2023-08-01T07:21:31;6.00;;;2.90;;
48516;SDS011;34310;51.904;4.256;2023-08-01T07:23:57;5.55;;;2.60;;
48516;SDS011;34310;51.904;4.256;2023-08-01T07:26:24;4.20;;;2.47;;
48516;SDS011;34310;51.904;4.256;2023-08-01T07:28:50;7.00;;;2.67;;
48516;SDS011;34310;51.904;4.256;2023-08-01T07:31:17;4.90;;;2.80;;
48516;SDS011;34310;51.904;4.256;2023-08-01T07:33:43;7.35;;;2.80;;
48516;SDS011;34310;51.904;4.256;2023-08-01T07:36:10;5.13;;;2.70;;
48516;SDS011;34310;51.904;4.256;2023-08-01T07:38:36;5.47;;;2.22;;
48516;SDS011;34310;51.904;4.256;2023-08-01T07:41:03;6.32;;;2.63;;
48516;SDS011;34310;51.904;4.256;2023-08-01T07:43:30;5.13;;;2.60;;
48516;SDS011;34310;51.904;4.256;2023-08-01T07:45:57;6.20;;;2.92;;
48516;SDS011;34310;51.904;4.256;2023-08-01T07:48:24;4.07;;;2.30;;
48516;SDS011;34310;51.904;4.256;2023-08-01T07:50:51;3.67;;;2.42;;
48516;SDS011;34310;51.904;4.256;2023-08-01T07:53:18;3.70;;;2.33;;
48516;SDS011;34310;51.904;4.256;2023-08-01T07:55:44;3.97;;;2.25;;
48516;SDS011;34310;51.904;4.256;2023-08-01T07:58:11;3.72;;;2.25;;
48516;SDS011;34310;51.904;4.256;2023-08-01T08:00:38;4.85;;;2.30;;
48516;SDS011;34310;51.904;4.256;2023-08-01T08:03:04;3.75;;;2.42;;
48516;SDS011;34310;51.904;4.256;2023-08-01T08:05:31;3.25;;;2.20;;
48516;SDS011;34310;51.904;4.256;2023-08-01T08:07:57;4.43;;;2.30;;
48516;SDS011;34310;51.904;4.256;2023-08-01T08:10:24;4.15;;;2.15;;
48516;SDS011;34310;51.904;4.256;2023-08-01T08:12:50;5.22;;;2.40;;
48516;SDS011;34310;51.904;4.256;2023-08-01T08:15:17;3.88;;;2.55;;
48516;SDS011;34310;51.904;4.256;2023-08-01T08:17:43;3.15;;;2.22;;
48516;SDS011;34310;51.904;4.256;2023-08-01T08:20:10;9.73;;;2.53;;
48516;SDS011;34310;51.904;4.256;2023-08-01T08:22:36;3.40;;;2.03;;
48516;SDS011;34310;51.904;4.256;2023-08-01T08:25:03;3.20;;;2.10;;
48516;SDS011;34310;51.904;4.256;2023-08-01T08:27:30;4.45;;;2.30;;
48516;SDS011;34310;51.904;4.256;2023-08-01T08:29:56;4.53;;;2.40;;
48516;SDS011;34310;51.904;4.256;2023-08-01T08:32:23;3.70;;;1.90;;
48516;SDS011;34310;51.904;4.256;2023-08-01T08:34:49;3.75;;;2.28;;
48516;SDS011;34310;51.904;4.256;2023-08-01T08:37:16;4.15;;;1.80;;
48516;SDS011;34310;51.904;4.256;2023-08-01T08:39:42;3.13;;;1.92;;
48516;SDS011;34310;51.904;4.256;2023-08-01T08:42:09;3.97;;;2.17;;
48516;SDS011;34310;51.904;4.256;2023-08-01T08:44:41;5.32;;;2.25;;
48516;SDS011;34310;51.904;4.256;2023-08-01T08:47:09;3.78;;;2.17;;
48516;SDS011;34310;51.904;4.256;2023-08-01T08:49:37;3.97;;;2.10;;
48516;SDS011;34310;51.904;4.256;2023-08-01T08:52:04;3.03;;;1.83;;
48516;SDS011;34310;51.904;4.256;2023-08-01T08:54:32;4.07;;;1.88;;
48516;SDS011;34310;51.904;4.256;2023-08-01T08:56:58;3.17;;;2.28;;
48516;SDS011;34310;51.904;4.256;2023-08-01T08:59:25;3.78;;;2.08;;
48516;SDS011;34310;51.904;4.256;2023-08-01T09:01:55;4.22;;;2.20;;
48516;SDS011;34310;51.904;4.256;2023-08-01T09:04:22;3.33;;;2.03;;
48516;SDS011;34310;51.904;4.256;2023-08-01T09:06:49;2.55;;;1.77;;
48516;SDS011;34310;51.904;4.256;2023-08-01T09:09:17;3.38;;;2.00;;
48516;SDS011;34310;51.904;4.256;2023-08-01T09:11:48;3.00;;;2.03;;
48516;SDS011;34310;51.904;4.256;2023-08-01T09:14:16;3.83;;;2.10;;
48516;SDS011;34310;51.904;4.256;2023-08-01T09:16:43;5.05;;;2.25;;
48516;SDS011;34310;51.904;4.256;2023-08-01T09:19:11;2.42;;;1.70;;
48516;SDS011;34310;51.904;4.256;2023-08-01T09:21:46;2.58;;;2.00;;
48516;SDS011;34310;51.904;4.256;2023-08-01T09:26:41;3.28;;;1.83;;
48516;SDS011;34310;51.904;4.256;2023-08-01T09:29:08;2.17;;;1.65;;
48516;SDS011;34310;51.904;4.256;2023-08-01T09:31:36;2.50;;;1.80;;
48516;SDS011;34310;51.904;4.256;2023-08-01T09:34:18;3.90;;;2.10;;
48516;SDS011;34310;51.904;4.256;2023-08-01T09:36:46;3.90;;;1.80;;
48516;SDS011;34310;51.904;4.256;2023-08-01T09:39:20;2.65;;;1.83;;
48516;SDS011;34310;51.904;4.256;2023-08-01T09:41:57;4.25;;;1.85;;
48516;SDS011;34310;51.904;4.256;2023-08-01T09:44:25;2.38;;;1.70;;
48516;SDS011;34310;51.904;4.256;2023-08-01T09:46:56;2.17;;;1.70;;
48516;SDS011;34310;51.904;4.256;2023-08-01T09:49:26;3.63;;;1.83;;
48516;SDS011;34310;51.904;4.256;2023-08-01T09:51:54;2.55;;;1.88;;
48516;SDS011;34310;51.904;4.256;2023-08-01T09:54:21;2.03;;;1.50;;
48516;SDS011;34310;51.904;4.256;2023-08-01T09:56:48;2.47;;;1.58;;
48516;SDS011;34310;51.904;4.256;2023-08-01T09:59:19;3.00;;;1.70;;
48516;SDS011;34310;51.904;4.256;2023-08-01T10:01:48;2.85;;;1.88;;
48516;SDS011;34310;51.904;4.256;2023-08-01T10:04:37;2.60;;;1.70;;
48516;SDS011;34310;51.904;4.256;2023-08-01T10:07:07;3.17;;;1.67;;
48516;SDS011;34310;51.904;4.256;2023-08-01T10:09:37;2.25;;;1.50;;
48516;SDS011;34310;51.904;4.256;2023-08-01T10:12:04;1.73;;;1.40;;
48516;SDS011;34310;51.904;4.256;2023-08-01T10:14:32;3.60;;;1.70;;
48516;SDS011;34310;51.904;4.256;2023-08-01T10:16:58;3.53;;;1.50;;
48516;SDS011;34310;51.904;4.256;2023-08-01T10:19:25;2.33;;;1.60;;
48516;SDS011;34310;51.904;4.256;2023-08-01T10:21:52;1.35;;;1.15;;
48516;SDS011;34310;51.904;4.256;2023-08-01T10:24:23;2.25;;;1.52;;
48516;SDS011;34310;51.904;4.256;2023-08-01T10:26:50;2.22;;;1.33;;
48516;SDS011;34310;51.904;4.256;2023-08-01T10:29:17;2.28;;;1.65;;
48516;SDS011;34310;51.904;4.256;2023-08-01T10:31:50;2.20;;;1.60;;
48516;SDS011;34310;51.904;4.256;2023-08-01T10:34:17;2.28;;;1.48;;
48516;SDS011;34310;51.904;4.256;2023-08-01T10:36:53;3.00;;;1.60;;
48516;SDS011;34310;51.904;4.256;2023-08-01T10:39:23;3.22;;;1.85;;
48516;SDS011;34310;51.904;4.256;2023-08-01T10:41:58;3.70;;;1.73;;
48516;SDS011;34310;51.904;4.256;2023-08-01T10:44:26;2.22;;;1.42;;
48516;SDS011;34310;51.904;4.256;2023-08-01T10:46:53;2.15;;;1.40;;
48516;SDS011;34310;51.904;4.256;2023-08-01T10:49:43;3.42;;;1.55;;
48516;SDS011;34310;51.904;4.256;2023-08-01T10:52:19;2.72;;;1.60;;
48516;SDS011;34310;51.904;4.256;2023-08-01T10:54:59;2.50;;;1.48;;
48516;SDS011;34310;51.904;4.256;2023-08-01T10:57:30;2.58;;;1.60;;
48516;SDS011;34310;51.904;4.256;2023-08-01T10:59:58;2.53;;;1.40;;
48516;SDS011;34310;51.904;4.256;2023-08-01T11:02:26;2.60;;;1.45;;
48516;SDS011;34310;51.904;4.256;2023-08-01T11:05:06;2.53;;;1.50;;
48516;SDS011;34310;51.904;4.256;2023-08-01T11:07:34;3.00;;;1.63;;
48516;SDS011;34310;51.904;4.256;2023-08-01T11:10:13;2.25;;;1.40;;
48516;SDS011;34310;51.904;4.256;2023-08-01T11:12:41;2.83;;;1.60;;
48516;SDS011;34310;51.904;4.256;2023-08-01T11:15:10;2.47;;;1.55;;
48516;SDS011;34310;51.904;4.256;2023-08-01T11:17:39;2.60;;;1.45;;
48516;SDS011;34310;51.904;4.256;2023-08-01T11:20:10;2.30;;;1.40;;
48516;SDS011;34310;51.904;4.256;2023-08-01T11:22:38;2.88;;;1.50;;
48516;SDS011;34310;51.904;4.256;2023-08-01T11:25:31;1.95;;;1.30;;
48516;SDS011;34310;51.904;4.256;2023-08-01T11:28:16;3.28;;;1.60;;
48516;SDS011;34310;51.904;4.256;2023-08-01T11:30:43;1.90;;;1.20;;
48516;SDS011;34310;51.904;4.256;2023-08-01T11:33:13;2.55;;;1.40;;
48516;SDS011;34310;51.904;4.256;2023-08-01T11:35:53;2.92;;;1.42;;
48516;SDS011;34310;51.904;4.256;2023-08-01T11:38:21;2.58;;;1.40;;
48516;SDS011;34310;51.904;4.256;2023-08-01T11:40:49;3.50;;;1.80;;
48516;SDS011;34310;51.904;4.256;2023-08-01T11:43:17;2.88;;;1.20;;
48516;SDS011;34310;51.904;4.256;2023-08-01T11:45:53;2.92;;;1.40;;
48516;SDS011;34310;51.904;4.256;2023-08-01T11:48:22;2.30;;;1.38;;
48516;SDS011;34310;51.904;4.256;2023-08-01T11:50:49;2.30;;;1.35;;
48516;SDS011;34310;51.904;4.256;2023-08-01T11:53:22;2.92;;;1.38;;
48516;SDS011;34310;51.904;4.256;2023-08-01T11:55:49;2.35;;;1.48;;
48516;SDS011;34310;51.904;4.256;2023-08-01T11:58:27;1.70;;;1.20;;
48516;SDS011;34310;51.904;4.256;2023-08-01T12:03:41;2.35;;;1.50;;
48516;SDS011;34310;51.904;4.256;2023-08-01T12:06:09;2.00;;;1.25;;
48516;SDS011;34310;51.904;4.256;2023-08-01T12:08:35;3.75;;;1.55;;
48516;SDS011;34310;51.904;4.256;2023-08-01T12:11:02;1.40;;;1.10;;
48516;SDS011;34310;51.904;4.256;2023-08-01T12:13:28;1.83;;;1.23;;
48516;SDS011;34310;51.904;4.256;2023-08-01T12:15:55;2.80;;;1.45;;
48516;SDS011;34310;51.904;4.256;2023-08-01T12:18:22;1.63;;;1.15;;
48516;SDS011;34310;51.904;4.256;2023-08-01T12:20:58;2.25;;;1.50;;
48516;SDS011;34310;51.904;4.256;2023-08-01T12:23:25;2.28;;;1.30;;
48516;SDS011;34310;51.904;4.256;2023-08-01T12:25:51;1.98;;;1.40;;
48516;SDS011;34310;51.904;4.256;2023-08-01T12:28:18;2.60;;;1.40;;
48516;SDS011;34310;51.904;4.256;2023-08-01T12:30:44;2.15;;;1.20;;
48516;SDS011;34310;51.904;4.256;2023-08-01T12:33:11;1.50;;;1.02;;
48516;SDS011;34310;51.904;4.256;2023-08-01T12:35:40;2.92;;;1.20;;
48516;SDS011;34310;51.904;4.256;2023-08-01T12:38:08;1.98;;;1.20;;
48516;SDS011;34310;51.904;4.256;2023-08-01T12:40:36;4.60;;;1.20;;
48516;SDS011;34310;51.904;4.256;2023-08-01T12:43:02;1.98;;;1.27;;
48516;SDS011;34310;51.904;4.256;2023-08-01T12:45:29;1.77;;;1.10;;
48516;SDS011;34310;51.904;4.256;2023-08-01T12:47:55;1.48;;;1.15;;
48516;SDS011;34310;51.904;4.256;2023-08-01T12:50:22;2.10;;;1.20;;
48516;SDS011;34310;51.904;4.256;2023-08-01T12:52:48;3.55;;;1.25;;
48516;SDS011;34310;51.904;4.256;2023-08-01T12:55:15;2.30;;;1.38;;
48516;SDS011;34310;51.904;4.256;2023-08-01T12:57:41;3.03;;;1.40;;
48516;SDS011;34310;51.904;4.256;2023-08-01T13:00:08;2.08;;;1.23;;
48516;SDS011;34310;51.904;4.256;2023-08-01T13:02:35;2.25;;;1.27;;
48516;SDS011;34310;51.904;4.256;2023-08-01T13:05:05;3.25;;;1.25;;
48516;SDS011;34310;51.904;4.256;2023-08-01T13:07:32;2.85;;;1.30;;
48516;SDS011;34310;51.904;4.256;2023-08-01T13:09:58;2.38;;;1.30;;
48516;SDS011;34310;51.904;4.256;2023-08-01T13:12:25;2.13;;;1.25;;
48516;SDS011;34310;51.904;4.256;2023-08-01T13:14:51;1.73;;;1.13;;
48516;SDS011;34310;51.904;4.256;2023-08-01T13:17:29;2.10;;;1.17;;
48516;SDS011;34310;51.904;4.256;2023-08-01T13:19:55;1.80;;;1.23;;
48516;SDS011;34310;51.904;4.256;2023-08-01T13:22:22;1.63;;;1.02;;
48516;SDS011;34310;51.904;4.256;2023-08-01T13:24:48;1.85;;;1.20;;
48516;SDS011;34310;51.904;4.256;2023-08-01T13:27:15;1.83;;;1.10;;
48516;SDS011;34310;51.904;4.256;2023-08-01T13:29:41;2.35;;;1.30;;
48516;SDS011;34310;51.904;4.256;2023-08-01T13:32:08;2.45;;;1.10;;
48516;SDS011;34310;51.904;4.256;2023-08-01T13:34:34;1.90;;;1.25;;
48516;SDS011;34310;51.904;4.256;2023-08-01T13:37:01;2.28;;;1.25;;
48516;SDS011;34310;51.904;4.256;2023-08-01T13:39:30;2.53;;;1.10;;
48516;SDS011;34310;51.904;4.256;2023-08-01T13:41:57;2.35;;;1.17;;
48516;SDS011;34310;51.904;4.256;2023-08-01T13:44:23;1.77;;;1.30;;
48516;SDS011;34310;51.904;4.256;2023-08-01T13:46:50;2.10;;;1.17;;
48516;SDS011;34310;51.904;4.256;2023-08-01T13:49:17;2.47;;;1.20;;
48516;SDS011;34310;51.904;4.256;2023-08-01T13:51:43;3.08;;;1.35;;
48516;SDS011;34310;51.904;4.256;2023-08-01T13:54:10;2.88;;;1.35;;
48516;SDS011;34310;51.904;4.256;2023-08-01T13:56:36;1.70;;;1.05;;
48516;SDS011;34310;51.904;4.256;2023-08-01T13:59:05;1.90;;;1.00;;
48516;SDS011;34310;51.904;4.256;2023-08-01T14:01:31;2.75;;;1.27;;
48516;SDS011;34310;51.904;4.256;2023-08-01T14:03:58;2.42;;;1.38;;
48516;SDS011;34310;51.904;4.256;2023-08-01T14:06:24;2.50;;;1.30;;
48516;SDS011;34310;51.904;4.256;2023-08-01T14:08:51;2.38;;;1.42;;
48516;SDS011;34310;51.904;4.256;2023-08-01T14:11:18;2.58;;;1.35;;
48516;SDS011;34310;51.904;4.256;2023-08-01T14:13:45;2.28;;;1.13;;
48516;SDS011;34310;51.904;4.256;2023-08-01T14:16:11;2.20;;;1.17;;
48516;SDS011;34310;51.904;4.256;2023-08-01T14:18:38;2.47;;;1.25;;
48516;SDS011;34310;51.904;4.256;2023-08-01T14:21:05;1.35;;;1.08;;
48516;SDS011;34310;51.904;4.256;2023-08-01T14:23:31;1.83;;;0.90;;
48516;SDS011;34310;51.904;4.256;2023-08-01T14:25:58;2.42;;;1.27;;
48516;SDS011;34310;51.904;4.256;2023-08-01T14:28:24;1.50;;;1.20;;
48516;SDS011;34310;51.904;4.256;2023-08-01T14:30:51;2.13;;;1.20;;
48516;SDS011;34310;51.904;4.256;2023-08-01T14:33:17;1.95;;;1.10;;
48516;SDS011;34310;51.904;4.256;2023-08-01T14:35:44;2.47;;;1.15;;
48516;SDS011;34310;51.904;4.256;2023-08-01T14:38:10;3.30;;;1.30;;
48516;SDS011;34310;51.904;4.256;2023-08-01T14:40:37;2.05;;;1.20;;
48516;SDS011;34310;51.904;4.256;2023-08-01T14:43:04;1.90;;;1.17;;
48516;SDS011;34310;51.904;4.256;2023-08-01T14:45:31;2.78;;;1.17;;
48516;SDS011;34310;51.904;4.256;2023-08-01T14:47:58;2.03;;;1.30;;
48516;SDS011;34310;51.904;4.256;2023-08-01T14:50:24;2.03;;;1.40;;
48516;SDS011;34310;51.904;4.256;2023-08-01T14:52:51;3.35;;;1.42;;
48516;SDS011;34310;51.904;4.256;2023-08-01T14:55:18;2.35;;;1.20;;